sensor_id;sensor_type;location;lat;lon;timestamp;P1;durP1;ratioP1;P2;durP2;ratioP2
6452;SDS011;3259;51.080;13.712;2023-04-25T00:02:17;0.10;;;0.05;;
6452;SDS011;3259;51.080;13.712;2023-04-25T00:05:06;0.00;;;0.00;;
6452;SDS011;3259;51.080;13.712;2023-04-25T00:07:56;0.40;;;0.10;;
6452;SDS011;3259;51.080;13.712;2023-04-25T00:10:45;0.00;;;0.00;;
6452;SDS011;3259;51.080;13.712;2023-04-25T00:13:35;1.50;;;0.10;;
6452;SDS011;3259;51.080;13.712;2023-04-25T00:16:23;1.50;;;0.00;;
6452;SDS011;3259;51.080;13.712;2023-04-25T00:19:14;0.98;;;0.00;;
6452;SDS011;3259;51.080;13.712;2023-04-25T00:22:03;0.00;;;0.00;;
6452;SDS011;3259;51.080;13.712;2023-04-25T00:24:52;0.13;;;0.10;;
6452;SDS011;3259;51.080;13.712;2023-04-25T00:27:43;0.00;;;0.00;;
6452;SDS011;3259;51.080;13.712;2023-04-25T00:30:32;0.00;;;0.00;;
6452;SDS011;3259;51.080;13.712;2023-04-25T00:33:20;1.02;;;0.10;;
6452;SDS011;3259;51.080;13.712;2023-04-25T00:36:10;0.70;;;0.10;;
6452;SDS011;3259;51.080;13.712;2023-04-25T00:38:59;0.55;;;0.10;;
6452;SDS011;3259;51.080;13.712;2023-04-25T00:41:47;0.35;;;0.10;;
6452;SDS011;3259;51.080;13.712;2023-04-25T00:44:39;0.10;;;0.00;;
6452;SDS011;3259;51.080;13.712;2023-04-25T00:47:29;0.00;;;0.00;;
6452;SDS011;3259;51.080;13.712;2023-04-25T00:50:18;1.17;;;0.00;;
6452;SDS011;3259;51.080;13.712;2023-04-25T00:53:08;4.65;;;0.00;;
6452;SDS011;3259;51.080;13.712;2023-04-25T00:55:56;0.20;;;0.00;;
6452;SDS011;3259;51.080;13.712;2023-04-25T00:58:45;0.70;;;0.00;;
6452;SDS011;3259;51.080;13.712;2023-04-25T01:01:34;0.08;;;0.00;;
6452;SDS011;3259;51.080;13.712;2023-04-25T01:04:24;0.10;;;0.00;;
6452;SDS011;3259;51.080;13.712;2023-04-25T01:07:15;0.00;;;0.00;;
6452;SDS011;3259;51.080;13.712;2023-04-25T01:10:06;1.88;;;0.30;;
6452;SDS011;3259;51.080;13.712;2023-04-25T01:12:59;0.00;;;0.00;;
6452;SDS011;3259;51.080;13.712;2023-04-25T01:15:48;0.00;;;0.00;;
6452;SDS011;3259;51.080;13.712;2023-04-25T01:18:38;1.02;;;0.08;;
6452;SDS011;3259;51.080;13.712;2023-04-25T01:21:34;2.53;;;0.10;;
6452;SDS011;3259;51.080;13.712;2023-04-25T01:24:23;0.22;;;0.00;;
6452;SDS011;3259;51.080;13.712;2023-04-25T01:27:12;0.00;;;0.00;;
6452;SDS011;3259;51.080;13.712;2023-04-25T01:30:01;0.00;;;0.00;;
6452;SDS011;3259;51.080;13.712;2023-04-25T01:32:51;0.52;;;0.00;;
6452;SDS011;3259;51.080;13.712;2023-04-25T01:35:43;0.03;;;0.00;;
6452;SDS011;3259;51.080;13.712;2023-04-25T01:38:33;0.05;;;0.00;;
6452;SDS011;3259;51.080;13.712;2023-04-25T01:41:22;0.00;;;0.00;;
6452;SDS011;3259;51.080;13.712;2023-04-25T01:44:11;1.85;;;0.10;;
6452;SDS011;3259;51.080;13.712;2023-04-25T01:47:00;0.13;;;0.10;;
6452;SDS011;3259;51.080;13.712;2023-04-25T01:49:49;0.00;;;0.00;;
6452;SDS011;3259;51.080;13.712;2023-04-25T01:52:37;0.00;;;0.00;;
6452;SDS011;3259;51.080;13.712;2023-04-25T01:55:28;0.35;;;0.00;;
6452;SDS011;3259;51.080;13.712;2023-04-25T01:58:16;0.00;;;0.00;;
6452;SDS011;3259;51.080;13.712;2023-04-25T02:01:05;0.00;;;0.00;;
6452;SDS011;3259;51.080;13.712;2023-04-25T02:03:54;0.10;;;0.05;;
6452;SDS011;3259;51.080;13.712;2023-04-25T02:06:43;0.00;;;0.00;;
6452;SDS011;3259;51.080;13.712;2023-04-25T02:09:32;0.55;;;0.10;;
6452;SDS011;3259;51.080;13.712;2023-04-25T02:12:22;0.20;;;0.00;;
6452;SDS011;3259;51.080;13.712;2023-04-25T02:15:15;0.65;;;0.00;;
6452;SDS011;3259;51.080;13.712;2023-04-25T02:18:03;0.08;;;0.08;;
6452;SDS011;3259;51.080;13.712;2023-04-25T02:20:57;0.15;;;0.10;;
6452;SDS011;3259;51.080;13.712;2023-04-25T02:23:47;0.10;;;0.00;;
6452;SDS011;3259;51.080;13.712;2023-04-25T02:26:39;0.00;;;0.00;;
6452;SDS011;3259;51.080;13.712;2023-04-25T02:29:29;0.00;;;0.00;;
6452;SDS011;3259;51.080;13.712;2023-04-25T02:32:17;4.13;;;0.00;;
6452;SDS011;3259;51.080;13.712;2023-04-25T02:35:06;0.20;;;0.03;;
6452;SDS011;3259;51.080;13.712;2023-04-25T02:37:55;1.95;;;0.00;;
6452;SDS011;3259;51.080;13.712;2023-04-25T02:40:44;1.38;;;0.08;;
6452;SDS011;3259;51.080;13.712;2023-04-25T02:43:33;2.25;;;0.00;;
6452;SDS011;3259;51.080;13.712;2023-04-25T02:46:23;1.00;;;0.00;;
6452;SDS011;3259;51.080;13.712;2023-04-25T02:49:24;0.32;;;0.00;;
6452;SDS011;3259;51.080;13.712;2023-04-25T02:52:13;0.10;;;0.03;;
6452;SDS011;3259;51.080;13.712;2023-04-25T02:55:02;1.55;;;0.00;;
6452;SDS011;3259;51.080;13.712;2023-04-25T02:57:51;0.10;;;0.00;;
6452;SDS011;3259;51.080;13.712;2023-04-25T03:00:41;9.10;;;0.20;;
6452;SDS011;3259;51.080;13.712;2023-04-25T03:03:31;0.57;;;0.10;;
6452;SDS011;3259;51.080;13.712;2023-04-25T03:06:20;0.95;;;0.10;;
6452;SDS011;3259;51.080;13.712;2023-04-25T03:09:09;0.13;;;0.00;;
6452;SDS011;3259;51.080;13.712;2023-04-25T03:11:58;0.17;;;0.10;;
6452;SDS011;3259;51.080;13.712;2023-04-25T03:14:46;0.10;;;0.10;;
6452;SDS011;3259;51.080;13.712;2023-04-25T03:17:35;0.00;;;0.00;;
6452;SDS011;3259;51.080;13.712;2023-04-25T03:20:25;1.38;;;0.03;;
6452;SDS011;3259;51.080;13.712;2023-04-25T03:23:14;6.90;;;0.15;;
6452;SDS011;3259;51.080;13.712;2023-04-25T03:26:03;0.00;;;0.00;;
6452;SDS011;3259;51.080;13.712;2023-04-25T03:28:52;0.00;;;0.00;;
6452;SDS011;3259;51.080;13.712;2023-04-25T03:31:43;0.50;;;0.00;;
6452;SDS011;3259;51.080;13.712;2023-04-25T03:34:32;0.50;;;0.10;;
6452;SDS011;3259;51.080;13.712;2023-04-25T03:37:22;0.50;;;0.00;;
6452;SDS011;3259;51.080;13.712;2023-04-25T03:40:11;0.00;;;0.00;;
6452;SDS011;3259;51.080;13.712;2023-04-25T03:43:00;0.00;;;0.00;;
6452;SDS011;3259;51.080;13.712;2023-04-25T03:45:49;0.20;;;0.10;;
6452;SDS011;3259;51.080;13.712;2023-04-25T03:48:38;0.20;;;0.13;;
6452;SDS011;3259;51.080;13.712;2023-04-25T03:51:26;0.08;;;0.00;;
6452;SDS011;3259;51.080;13.712;2023-04-25T03:54:16;0.00;;;0.00;;
6452;SDS011;3259;51.080;13.712;2023-04-25T03:57:05;0.65;;;0.00;;
6452;SDS011;3259;51.080;13.712;2023-04-25T03:59:54;0.40;;;0.00;;
6452;SDS011;3259;51.080;13.712;2023-04-25T04:02:43;0.70;;;0.10;;
6452;SDS011;3259;51.080;13.712;2023-04-25T04:05:32;0.75;;;0.03;;
6452;SDS011;3259;51.080;13.712;2023-04-25T04:08:20;0.30;;;0.10;;
6452;SDS011;3259;51.080;13.712;2023-04-25T04:11:10;1.65;;;0.10;;
6452;SDS011;3259;51.080;13.712;2023-04-25T04:13:59;2.03;;;0.10;;
6452;SDS011;3259;51.080;13.712;2023-04-25T04:16:48;2.28;;;0.10;;
6452;SDS011;3259;51.080;13.712;2023-04-25T04:19:36;3.42;;;0.55;;
6452;SDS011;3259;51.080;13.712;2023-04-25T04:22:25;9.57;;;0.75;;
6452;SDS011;3259;51.080;13.712;2023-04-25T04:25:14;2.60;;;1.08;;
6452;SDS011;3259;51.080;13.712;2023-04-25T04:28:04;2.28;;;0.85;;
6452;SDS011;3259;51.080;13.712;2023-04-25T04:30:53;3.13;;;1.17;;
6452;SDS011;3259;51.080;13.712;2023-04-25T04:33:45;1.42;;;0.55;;
6452;SDS011;3259;51.080;13.712;2023-04-25T04:36:34;4.25;;;1.42;;
6452;SDS011;3259;51.080;13.712;2023-04-25T04:39:23;2.97;;;1.05;;
6452;SDS011;3259;51.080;13.712;2023-04-25T04:42:11;4.57;;;0.77;;
6452;SDS011;3259;51.080;13.712;2023-04-25T04:45:05;57.85;;;4.20;;
6452;SDS011;3259;51.080;13.712;2023-04-25T04:47:54;3.55;;;1.08;;
6452;SDS011;3259;51.080;13.712;2023-04-25T04:50:43;0.88;;;0.50;;
6452;SDS011;3259;51.080;13.712;2023-04-25T04:53:32;3.83;;;0.98;;
6452;SDS011;3259;51.080;13.712;2023-04-25T04:56:21;1.35;;;0.95;;
6452;SDS011;3259;51.080;13.712;2023-04-25T04:59:11;1.95;;;0.70;;
6452;SDS011;3259;51.080;13.712;2023-04-25T05:02:01;1.45;;;0.70;;
6452;SDS011;3259;51.080;13.712;2023-04-25T05:04:50;4.88;;;1.38;;
6452;SDS011;3259;51.080;13.712;2023-04-25T05:07:39;4.13;;;0.95;;
6452;SDS011;3259;51.080;13.712;2023-04-25T05:10:28;3.25;;;1.42;;
6452;SDS011;3259;51.080;13.712;2023-04-25T05:13:17;1.90;;;1.08;;
6452;SDS011;3259;51.080;13.712;2023-04-25T05:16:06;5.00;;;1.25;;
6452;SDS011;3259;51.080;13.712;2023-04-25T05:18:56;3.97;;;1.33;;
6452;SDS011;3259;51.080;13.712;2023-04-25T05:21:45;3.45;;;1.20;;
6452;SDS011;3259;51.080;13.712;2023-04-25T05:24:33;3.22;;;1.08;;
6452;SDS011;3259;51.080;13.712;2023-04-25T05:27:22;3.50;;;1.30;;
6452;SDS011;3259;51.080;13.712;2023-04-25T05:30:12;5.60;;;0.77;;
6452;SDS011;3259;51.080;13.712;2023-04-25T05:33:00;1.77;;;1.10;;
6452;SDS011;3259;51.080;13.712;2023-04-25T05:35:51;2.55;;;1.40;;
6452;SDS011;3259;51.080;13.712;2023-04-25T05:38:40;3.72;;;1.02;;
6452;SDS011;3259;51.080;13.712;2023-04-25T05:41:28;2.25;;;0.93;;
6452;SDS011;3259;51.080;13.712;2023-04-25T05:44:17;1.58;;;1.33;;
6452;SDS011;3259;51.080;13.712;2023-04-25T05:47:06;5.80;;;0.75;;
6452;SDS011;3259;51.080;13.712;2023-04-25T05:49:55;2.00;;;0.52;;
6452;SDS011;3259;51.080;13.712;2023-04-25T05:52:45;1.63;;;0.70;;
6452;SDS011;3259;51.080;13.712;2023-04-25T05:55:33;4.22;;;1.40;;
6452;SDS011;3259;51.080;13.712;2023-04-25T05:58:22;1.40;;;1.17;;
6452;SDS011;3259;51.080;13.712;2023-04-25T06:01:11;1.25;;;0.73;;
6452;SDS011;3259;51.080;13.712;2023-04-25T06:04:00;3.10;;;0.70;;
6452;SDS011;3259;51.080;13.712;2023-04-25T06:06:50;2.15;;;1.05;;
6452;SDS011;3259;51.080;13.712;2023-04-25T06:09:40;2.70;;;1.20;;
6452;SDS011;3259;51.080;13.712;2023-04-25T06:12:28;5.93;;;1.00;;
6452;SDS011;3259;51.080;13.712;2023-04-25T06:15:17;7.25;;;0.80;;
6452;SDS011;3259;51.080;13.712;2023-04-25T06:18:09;4.35;;;1.17;;
6452;SDS011;3259;51.080;13.712;2023-04-25T06:20:58;1.02;;;0.88;;
6452;SDS011;3259;51.080;13.712;2023-04-25T06:23:47;3.42;;;1.02;;
6452;SDS011;3259;51.080;13.712;2023-04-25T06:26:38;1.33;;;0.85;;
6452;SDS011;3259;51.080;13.712;2023-04-25T06:29:27;2.30;;;1.05;;
6452;SDS011;3259;51.080;13.712;2023-04-25T06:32:16;5.13;;;0.80;;
6452;SDS011;3259;51.080;13.712;2023-04-25T06:35:09;2.40;;;1.13;;
6452;SDS011;3259;51.080;13.712;2023-04-25T06:37:58;3.33;;;0.63;;
6452;SDS011;3259;51.080;13.712;2023-04-25T06:40:48;1.48;;;0.40;;
6452;SDS011;3259;51.080;13.712;2023-04-25T06:43:39;2.30;;;0.98;;
6452;SDS011;3259;51.080;13.712;2023-04-25T06:46:27;3.72;;;1.30;;
6452;SDS011;3259;51.080;13.712;2023-04-25T06:49:16;3.08;;;0.75;;
6452;SDS011;3259;51.080;13.712;2023-04-25T06:52:05;0.95;;;0.70;;
6452;SDS011;3259;51.080;13.712;2023-04-25T06:54:54;3.03;;;0.88;;
6452;SDS011;3259;51.080;13.712;2023-04-25T06:57:42;8.55;;;1.63;;
6452;SDS011;3259;51.080;13.712;2023-04-25T07:00:32;1.10;;;0.80;;
6452;SDS011;3259;51.080;13.712;2023-04-25T07:03:21;2.25;;;0.90;;
6452;SDS011;3259;51.080;13.712;2023-04-25T07:06:10;3.00;;;1.00;;
6452;SDS011;3259;51.080;13.712;2023-04-25T07:08:59;2.67;;;0.90;;
6452;SDS011;3259;51.080;13.712;2023-04-25T07:11:48;0.80;;;0.70;;
6452;SDS011;3259;51.080;13.712;2023-04-25T07:14:37;1.48;;;0.52;;
6452;SDS011;3259;51.080;13.712;2023-04-25T07:17:27;1.10;;;0.90;;
6452;SDS011;3259;51.080;13.712;2023-04-25T07:20:16;2.17;;;0.73;;
6452;SDS011;3259;51.080;13.712;2023-04-25T07:23:04;1.63;;;1.00;;
6452;SDS011;3259;51.080;13.712;2023-04-25T07:25:53;2.03;;;0.82;;
6452;SDS011;3259;51.080;13.712;2023-04-25T07:28:42;0.93;;;0.70;;
6452;SDS011;3259;51.080;13.712;2023-04-25T07:31:31;1.67;;;0.80;;
6452;SDS011;3259;51.080;13.712;2023-04-25T07:34:21;0.68;;;0.50;;
6452;SDS011;3259;51.080;13.712;2023-04-25T07:37:10;1.27;;;0.68;;
6452;SDS011;3259;51.080;13.712;2023-04-25T07:39:58;0.90;;;0.80;;
6452;SDS011;3259;51.080;13.712;2023-04-25T07:42:47;1.42;;;0.68;;
6452;SDS011;3259;51.080;13.712;2023-04-25T07:45:36;1.55;;;0.50;;
6452;SDS011;3259;51.080;13.712;2023-04-25T07:48:24;0.70;;;0.40;;
6452;SDS011;3259;51.080;13.712;2023-04-25T07:51:15;1.58;;;0.95;;
6452;SDS011;3259;51.080;13.712;2023-04-25T07:54:06;1.23;;;0.43;;
6452;SDS011;3259;51.080;13.712;2023-04-25T07:56:57;0.60;;;0.57;;
6452;SDS011;3259;51.080;13.712;2023-04-25T07:59:47;1.45;;;0.70;;
6452;SDS011;3259;51.080;13.712;2023-04-25T08:02:35;2.53;;;0.55;;
6452;SDS011;3259;51.080;13.712;2023-04-25T08:05:24;1.00;;;0.52;;
6452;SDS011;3259;51.080;13.712;2023-04-25T08:08:14;1.27;;;0.60;;
6452;SDS011;3259;51.080;13.712;2023-04-25T08:11:03;1.73;;;0.80;;
6452;SDS011;3259;51.080;13.712;2023-04-25T08:13:52;0.55;;;0.50;;
6452;SDS011;3259;51.080;13.712;2023-04-25T08:16:43;1.42;;;0.45;;
6452;SDS011;3259;51.080;13.712;2023-04-25T08:19:32;0.73;;;0.60;;
6452;SDS011;3259;51.080;13.712;2023-04-25T08:22:21;1.67;;;0.57;;
6452;SDS011;3259;51.080;13.712;2023-04-25T08:25:11;0.90;;;0.57;;
6452;SDS011;3259;51.080;13.712;2023-04-25T08:28:00;2.92;;;0.47;;
6452;SDS011;3259;51.080;13.712;2023-04-25T08:30:49;0.60;;;0.60;;
6452;SDS011;3259;51.080;13.712;2023-04-25T08:33:38;1.60;;;0.40;;
6452;SDS011;3259;51.080;13.712;2023-04-25T08:36:27;0.70;;;0.60;;
6452;SDS011;3259;51.080;13.712;2023-04-25T08:39:25;0.85;;;0.45;;
6452;SDS011;3259;51.080;13.712;2023-04-25T08:42:15;0.38;;;0.38;;
6452;SDS011;3259;51.080;13.712;2023-04-25T08:45:04;7.32;;;1.10;;
6452;SDS011;3259;51.080;13.712;2023-04-25T08:47:55;1.40;;;0.50;;
6452;SDS011;3259;51.080;13.712;2023-04-25T08:50:49;0.60;;;0.60;;
6452;SDS011;3259;51.080;13.712;2023-04-25T08:53:39;1.58;;;0.32;;
6452;SDS011;3259;51.080;13.712;2023-04-25T08:56:29;1.52;;;0.60;;
6452;SDS011;3259;51.080;13.712;2023-04-25T08:59:24;1.50;;;0.50;;
6452;SDS011;3259;51.080;13.712;2023-04-25T09:02:15;0.57;;;0.57;;
6452;SDS011;3259;51.080;13.712;2023-04-25T09:05:06;0.77;;;0.40;;
6452;SDS011;3259;51.080;13.712;2023-04-25T09:07:56;0.60;;;0.57;;
6452;SDS011;3259;51.080;13.712;2023-04-25T09:10:45;1.75;;;0.70;;
6452;SDS011;3259;51.080;13.712;2023-04-25T09:13:34;3.95;;;0.68;;
6452;SDS011;3259;51.080;13.712;2023-04-25T09:16:24;3.78;;;0.70;;
6452;SDS011;3259;51.080;13.712;2023-04-25T09:19:20;2.05;;;0.70;;
6452;SDS011;3259;51.080;13.712;2023-04-25T09:22:24;0.80;;;0.77;;
6452;SDS011;3259;51.080;13.712;2023-04-25T09:25:13;2.97;;;0.52;;
6452;SDS011;3259;51.080;13.712;2023-04-25T09:28:03;1.48;;;0.80;;
6452;SDS011;3259;51.080;13.712;2023-04-25T09:30:54;0.85;;;0.63;;
6452;SDS011;3259;51.080;13.712;2023-04-25T09:33:46;1.95;;;0.63;;
6452;SDS011;3259;51.080;13.712;2023-04-25T09:36:36;2.35;;;0.57;;
6452;SDS011;3259;51.080;13.712;2023-04-25T09:39:28;0.55;;;0.47;;
6452;SDS011;3259;51.080;13.712;2023-04-25T09:42:22;1.83;;;0.75;;
6452;SDS011;3259;51.080;13.712;2023-04-25T09:45:12;1.20;;;0.90;;
6452;SDS011;3259;51.080;13.712;2023-04-25T09:48:02;4.95;;;0.75;;
6452;SDS011;3259;51.080;13.712;2023-04-25T09:51:06;2.45;;;0.70;;
6452;SDS011;3259;51.080;13.712;2023-04-25T09:53:56;1.35;;;0.57;;
6452;SDS011;3259;51.080;13.712;2023-04-25T09:56:45;1.17;;;0.55;;
6452;SDS011;3259;51.080;13.712;2023-04-25T09:59:36;0.55;;;0.55;;
6452;SDS011;3259;51.080;13.712;2023-04-25T10:02:27;0.75;;;0.70;;
6452;SDS011;3259;51.080;13.712;2023-04-25T10:05:16;0.80;;;0.70;;
6452;SDS011;3259;51.080;13.712;2023-04-25T10:08:06;2.22;;;0.75;;
6452;SDS011;3259;51.080;13.712;2023-04-25T10:10:56;0.30;;;0.30;;
6452;SDS011;3259;51.080;13.712;2023-04-25T10:13:46;1.38;;;0.40;;
6452;SDS011;3259;51.080;13.712;2023-04-25T10:16:36;0.63;;;0.60;;
6452;SDS011;3259;51.080;13.712;2023-04-25T10:19:26;0.93;;;0.47;;
6452;SDS011;3259;51.080;13.712;2023-04-25T10:22:17;1.13;;;0.70;;
6452;SDS011;3259;51.080;13.712;2023-04-25T10:25:12;2.25;;;0.70;;
6452;SDS011;3259;51.080;13.712;2023-04-25T10:28:03;0.65;;;0.65;;
6452;SDS011;3259;51.080;13.712;2023-04-25T10:30:58;0.80;;;0.80;;
6452;SDS011;3259;51.080;13.712;2023-04-25T10:33:48;1.67;;;0.40;;
6452;SDS011;3259;51.080;13.712;2023-04-25T10:36:40;2.95;;;0.88;;
6452;SDS011;3259;51.080;13.712;2023-04-25T10:39:29;0.82;;;0.82;;
6452;SDS011;3259;51.080;13.712;2023-04-25T10:42:19;0.45;;;0.45;;
6452;SDS011;3259;51.080;13.712;2023-04-25T10:45:08;0.80;;;0.70;;
6452;SDS011;3259;51.080;13.712;2023-04-25T10:47:57;1.05;;;0.52;;
6452;SDS011;3259;51.080;13.712;2023-04-25T10:50:46;0.80;;;0.60;;
6452;SDS011;3259;51.080;13.712;2023-04-25T10:53:35;0.63;;;0.50;;
6452;SDS011;3259;51.080;13.712;2023-04-25T10:56:25;0.80;;;0.60;;
6452;SDS011;3259;51.080;13.712;2023-04-25T10:59:16;1.75;;;0.60;;
6452;SDS011;3259;51.080;13.712;2023-04-25T11:02:11;1.63;;;0.90;;
6452;SDS011;3259;51.080;13.712;2023-04-25T11:05:00;4.18;;;1.02;;
6452;SDS011;3259;51.080;13.712;2023-04-25T11:07:51;1.48;;;0.70;;
6452;SDS011;3259;51.080;13.712;2023-04-25T11:10:53;3.63;;;0.63;;
6452;SDS011;3259;51.080;13.712;2023-04-25T11:13:41;2.70;;;0.80;;
6452;SDS011;3259;51.080;13.712;2023-04-25T11:16:34;1.40;;;0.52;;
6452;SDS011;3259;51.080;13.712;2023-04-25T11:19:23;2.47;;;0.55;;
6452;SDS011;3259;51.080;13.712;2023-04-25T11:22:12;1.75;;;0.95;;
6452;SDS011;3259;51.080;13.712;2023-04-25T11:25:04;0.52;;;0.52;;
6452;SDS011;3259;51.080;13.712;2023-04-25T11:27:54;1.05;;;0.70;;
6452;SDS011;3259;51.080;13.712;2023-04-25T11:30:47;2.50;;;0.95;;
6452;SDS011;3259;51.080;13.712;2023-04-25T11:33:38;1.02;;;0.50;;
6452;SDS011;3259;51.080;13.712;2023-04-25T11:36:27;1.00;;;0.68;;
6452;SDS011;3259;51.080;13.712;2023-04-25T11:39:17;1.30;;;0.55;;
6452;SDS011;3259;51.080;13.712;2023-04-25T11:42:06;0.45;;;0.40;;
6452;SDS011;3259;51.080;13.712;2023-04-25T11:44:59;6.10;;;0.80;;
6452;SDS011;3259;51.080;13.712;2023-04-25T11:47:49;1.83;;;0.68;;
6452;SDS011;3259;51.080;13.712;2023-04-25T11:50:39;2.15;;;0.40;;
6452;SDS011;3259;51.080;13.712;2023-04-25T11:53:28;0.50;;;0.38;;
6452;SDS011;3259;51.080;13.712;2023-04-25T11:56:17;3.92;;;0.73;;
6452;SDS011;3259;51.080;13.712;2023-04-25T11:59:06;0.38;;;0.32;;
6452;SDS011;3259;51.080;13.712;2023-04-25T12:01:56;0.47;;;0.47;;
6452;SDS011;3259;51.080;13.712;2023-04-25T12:04:47;0.40;;;0.30;;
6452;SDS011;3259;51.080;13.712;2023-04-25T12:07:38;1.00;;;0.38;;
6452;SDS011;3259;51.080;13.712;2023-04-25T12:10:27;0.95;;;0.50;;
6452;SDS011;3259;51.080;13.712;2023-04-25T12:13:19;0.55;;;0.50;;
6452;SDS011;3259;51.080;13.712;2023-04-25T12:16:09;0.77;;;0.28;;
6452;SDS011;3259;51.080;13.712;2023-04-25T12:18:58;0.85;;;0.50;;
6452;SDS011;3259;51.080;13.712;2023-04-25T12:21:47;1.77;;;0.50;;
6452;SDS011;3259;51.080;13.712;2023-04-25T12:24:46;0.63;;;0.45;;
6452;SDS011;3259;51.080;13.712;2023-04-25T12:27:35;1.20;;;0.43;;
6452;SDS011;3259;51.080;13.712;2023-04-25T12:30:23;0.98;;;0.52;;
6452;SDS011;3259;51.080;13.712;2023-04-25T12:33:12;0.93;;;0.90;;
6452;SDS011;3259;51.080;13.712;2023-04-25T12:36:01;0.98;;;0.63;;
6452;SDS011;3259;51.080;13.712;2023-04-25T12:38:55;0.90;;;0.60;;
6452;SDS011;3259;51.080;13.712;2023-04-25T12:41:51;3.15;;;0.50;;
6452;SDS011;3259;51.080;13.712;2023-04-25T12:44:41;1.75;;;0.52;;
6452;SDS011;3259;51.080;13.712;2023-04-25T12:47:29;1.90;;;0.60;;
6452;SDS011;3259;51.080;13.712;2023-04-25T12:50:21;1.17;;;0.52;;
6452;SDS011;3259;51.080;13.712;2023-04-25T12:53:10;2.55;;;0.70;;
6452;SDS011;3259;51.080;13.712;2023-04-25T12:55:59;1.45;;;0.40;;
6452;SDS011;3259;51.080;13.712;2023-04-25T12:58:49;2.88;;;0.77;;
6452;SDS011;3259;51.080;13.712;2023-04-25T13:01:39;3.22;;;0.90;;
6452;SDS011;3259;51.080;13.712;2023-04-25T13:04:32;1.52;;;0.88;;
6452;SDS011;3259;51.080;13.712;2023-04-25T13:07:21;2.55;;;0.70;;
6452;SDS011;3259;51.080;13.712;2023-04-25T13:10:10;5.40;;;0.90;;
6452;SDS011;3259;51.080;13.712;2023-04-25T13:12:59;0.88;;;0.73;;
6452;SDS011;3259;51.080;13.712;2023-04-25T13:15:50;1.60;;;0.65;;
6452;SDS011;3259;51.080;13.712;2023-04-25T13:18:39;9.73;;;2.40;;
6452;SDS011;3259;51.080;13.712;2023-04-25T13:21:29;6.68;;;2.30;;
6452;SDS011;3259;51.080;13.712;2023-04-25T13:24:19;6.25;;;2.05;;
6452;SDS011;3259;51.080;13.712;2023-04-25T13:27:08;11.32;;;2.38;;
6452;SDS011;3259;51.080;13.712;2023-04-25T13:29:56;7.13;;;2.13;;
6452;SDS011;3259;51.080;13.712;2023-04-25T13:32:46;5.32;;;1.90;;
6452;SDS011;3259;51.080;13.712;2023-04-25T13:35:36;5.50;;;1.70;;
6452;SDS011;3259;51.080;13.712;2023-04-25T13:38:25;8.68;;;2.22;;
6452;SDS011;3259;51.080;13.712;2023-04-25T13:41:14;9.75;;;1.92;;
6452;SDS011;3259;51.080;13.712;2023-04-25T13:44:05;5.03;;;1.40;;
6452;SDS011;3259;51.080;13.712;2023-04-25T13:46:54;4.82;;;1.38;;
6452;SDS011;3259;51.080;13.712;2023-04-25T13:49:44;5.25;;;1.48;;
6452;SDS011;3259;51.080;13.712;2023-04-25T13:52:35;3.83;;;1.58;;
6452;SDS011;3259;51.080;13.712;2023-04-25T13:55:26;6.35;;;2.10;;
6452;SDS011;3259;51.080;13.712;2023-04-25T13:58:14;3.22;;;1.23;;
6452;SDS011;3259;51.080;13.712;2023-04-25T14:01:03;4.10;;;1.48;;
6452;SDS011;3259;51.080;13.712;2023-04-25T14:03:52;4.38;;;1.75;;
6452;SDS011;3259;51.080;13.712;2023-04-25T14:06:42;2.17;;;1.05;;
6452;SDS011;3259;51.080;13.712;2023-04-25T14:09:32;5.72;;;2.53;;
6452;SDS011;3259;51.080;13.712;2023-04-25T14:12:20;3.35;;;1.60;;
6452;SDS011;3259;51.080;13.712;2023-04-25T14:15:09;8.00;;;2.00;;
6452;SDS011;3259;51.080;13.712;2023-04-25T14:17:58;6.78;;;1.67;;
6452;SDS011;3259;51.080;13.712;2023-04-25T14:20:48;6.13;;;2.03;;
6452;SDS011;3259;51.080;13.712;2023-04-25T14:23:39;8.95;;;2.63;;
6452;SDS011;3259;51.080;13.712;2023-04-25T14:26:28;6.38;;;1.95;;
6452;SDS011;3259;51.080;13.712;2023-04-25T14:29:16;4.40;;;1.65;;
6452;SDS011;3259;51.080;13.712;2023-04-25T14:32:05;6.07;;;2.47;;
6452;SDS011;3259;51.080;13.712;2023-04-25T14:34:54;4.13;;;1.90;;
6452;SDS011;3259;51.080;13.712;2023-04-25T14:37:43;7.70;;;2.13;;
6452;SDS011;3259;51.080;13.712;2023-04-25T14:40:33;13.07;;;2.45;;
6452;SDS011;3259;51.080;13.712;2023-04-25T14:43:22;10.90;;;1.73;;
6452;SDS011;3259;51.080;13.712;2023-04-25T14:46:10;6.50;;;2.05;;
6452;SDS011;3259;51.080;13.712;2023-04-25T14:49:00;5.32;;;1.60;;
6452;SDS011;3259;51.080;13.712;2023-04-25T14:51:50;7.68;;;1.88;;
6452;SDS011;3259;51.080;13.712;2023-04-25T14:54:38;5.28;;;1.65;;
6452;SDS011;3259;51.080;13.712;2023-04-25T14:57:28;6.63;;;2.38;;
6452;SDS011;3259;51.080;13.712;2023-04-25T15:00:17;3.15;;;1.55;;
6452;SDS011;3259;51.080;13.712;2023-04-25T15:03:07;4.63;;;1.92;;
6452;SDS011;3259;51.080;13.712;2023-04-25T15:05:58;8.75;;;1.77;;
6452;SDS011;3259;51.080;13.712;2023-04-25T15:08:47;6.50;;;2.00;;
6452;SDS011;3259;51.080;13.712;2023-04-25T15:11:36;7.90;;;1.95;;
6452;SDS011;3259;51.080;13.712;2023-04-25T15:14:26;3.35;;;1.45;;
6452;SDS011;3259;51.080;13.712;2023-04-25T15:17:15;5.97;;;1.65;;
6452;SDS011;3259;51.080;13.712;2023-04-25T15:20:04;2.38;;;0.93;;
6452;SDS011;3259;51.080;13.712;2023-04-25T15:22:56;3.75;;;1.45;;
6452;SDS011;3259;51.080;13.712;2023-04-25T15:25:45;6.10;;;1.88;;
6452;SDS011;3259;51.080;13.712;2023-04-25T15:28:34;3.58;;;1.05;;
6452;SDS011;3259;51.080;13.712;2023-04-25T15:31:24;1.55;;;0.85;;
6452;SDS011;3259;51.080;13.712;2023-04-25T15:34:14;5.35;;;1.27;;
6452;SDS011;3259;51.080;13.712;2023-04-25T15:37:03;5.10;;;1.38;;
6452;SDS011;3259;51.080;13.712;2023-04-25T15:39:51;2.97;;;1.05;;
6452;SDS011;3259;51.080;13.712;2023-04-25T15:42:51;2.50;;;0.68;;
6452;SDS011;3259;51.080;13.712;2023-04-25T15:45:40;2.47;;;1.33;;
6452;SDS011;3259;51.080;13.712;2023-04-25T15:48:31;2.55;;;0.80;;
6452;SDS011;3259;51.080;13.712;2023-04-25T15:51:19;2.92;;;1.15;;
6452;SDS011;3259;51.080;13.712;2023-04-25T15:54:08;4.68;;;0.90;;
6452;SDS011;3259;51.080;13.712;2023-04-25T15:56:57;2.15;;;0.90;;
6452;SDS011;3259;51.080;13.712;2023-04-25T15:59:47;3.80;;;0.80;;
6452;SDS011;3259;51.080;13.712;2023-04-25T16:02:36;2.38;;;0.80;;
6452;SDS011;3259;51.080;13.712;2023-04-25T16:05:27;2.38;;;1.00;;
6452;SDS011;3259;51.080;13.712;2023-04-25T16:08:16;2.65;;;1.05;;
6452;SDS011;3259;51.080;13.712;2023-04-25T16:11:05;2.30;;;0.57;;
6452;SDS011;3259;51.080;13.712;2023-04-25T16:13:54;1.15;;;0.90;;
6452;SDS011;3259;51.080;13.712;2023-04-25T16:16:42;3.10;;;1.05;;
6452;SDS011;3259;51.080;13.712;2023-04-25T16:19:31;3.42;;;1.05;;
6452;SDS011;3259;51.080;13.712;2023-04-25T16:22:21;2.92;;;1.17;;
6452;SDS011;3259;51.080;13.712;2023-04-25T16:25:10;4.50;;;0.90;;
6452;SDS011;3259;51.080;13.712;2023-04-25T16:27:58;11.75;;;1.38;;
6452;SDS011;3259;51.080;13.712;2023-04-25T16:30:47;3.20;;;0.60;;
6452;SDS011;3259;51.080;13.712;2023-04-25T16:33:37;10.70;;;0.73;;
6452;SDS011;3259;51.080;13.712;2023-04-25T16:36:26;5.20;;;0.80;;
6452;SDS011;3259;51.080;13.712;2023-04-25T16:39:16;2.10;;;0.90;;
6452;SDS011;3259;51.080;13.712;2023-04-25T16:42:04;4.20;;;1.10;;
6452;SDS011;3259;51.080;13.712;2023-04-25T16:44:53;13.13;;;1.40;;
6452;SDS011;3259;51.080;13.712;2023-04-25T16:47:42;16.13;;;1.15;;
6452;SDS011;3259;51.080;13.712;2023-04-25T16:50:31;2.45;;;0.80;;
6452;SDS011;3259;51.080;13.712;2023-04-25T16:53:20;6.50;;;1.52;;
6452;SDS011;3259;51.080;13.712;2023-04-25T16:56:10;6.13;;;1.02;;
6452;SDS011;3259;51.080;13.712;2023-04-25T16:58:59;11.02;;;2.60;;
6452;SDS011;3259;51.080;13.712;2023-04-25T17:01:48;12.02;;;3.00;;
6452;SDS011;3259;51.080;13.712;2023-04-25T17:04:37;5.55;;;2.35;;
6452;SDS011;3259;51.080;13.712;2023-04-25T17:07:26;9.65;;;3.03;;
6452;SDS011;3259;51.080;13.712;2023-04-25T17:10:15;10.57;;;3.95;;
6452;SDS011;3259;51.080;13.712;2023-04-25T17:13:05;13.00;;;3.85;;
6452;SDS011;3259;51.080;13.712;2023-04-25T17:15:53;9.82;;;3.03;;
6452;SDS011;3259;51.080;13.712;2023-04-25T17:18:42;12.73;;;3.22;;